Bookmark and Share
Track history (hours):
 

Aidamar

Last reported at 2014-Apr-16 10:32 UTC. Time now 2014-Apr-16 10:42 UTC.
Position N 43°21' E 005°20'.

Length 253 m; draft 7.3 m.

Type: Passenger vessel. MMSI: 247312900.

NotesDate/timePositionNaut miles runAvg speedWind from/ knotsBaromVisibWave heightAir tempDewpointWater temp
2014-Apr-16 10:32N 43°21' E 005°20'0 0.0
2014-Apr-16 09:33N 43°21' E 005°20'0 0.0
2014-Apr-16 08:28N 43°21' E 005°20'0 0.0
2014-Apr-16 07:32N 43°21' E 005°20'0 0.0
2014-Apr-16 06:33N 43°21' E 005°20'0 0.0
2014-Apr-16 05:33N 43°21' E 005°20'4 3.8
2014-Apr-16 04:33N 43°19' E 005°15'7 7.4
2014-Apr-16 03:33N 43°13' E 005°11'8 6.7
2014-Apr-16 02:22N 43°05' E 005°16'6 7.5
2014-Apr-16 01:33N 43°04' E 005°24'8 7.7
2014-Apr-16 00:33N 43°01' E 005°34'7 7.1
2014-Apr-15 23:33N 42°60' E 005°43'7 7.3
2014-Apr-15 22:33N 42°57' E 005°52'7 7.3
2014-Apr-15 21:33N 42°55' E 006°02'7 7.1
2014-Apr-15 20:33N 42°56' E 006°11'7 7.1
2014-Apr-15 19:33N 43°01' E 006°19'7 7.1
2014-Apr-15 18:33N 43°05' E 006°27'8 8.0
2014-Apr-15 17:33N 43°08' E 006°37'24 7.8
2014-Apr-15 14:33N 43°23' E 007°01'8 4.0
2014-Apr-15 12:33N 43°28' E 007°10'8 7.8
2014-Apr-15 11:34N 43°34' E 007°17'3 2.8
2014-Apr-15 10:34N 43°36' E 007°20'1 1.2
2014-Apr-15 09:34N 43°36' E 007°21'3 3.2
2014-Apr-15 08:33N 43°37' E 007°25'51 8.5
2014-Apr-15 02:34N 43°38' E 008°35'8 8.4
2014-Apr-15 01:34N 43°37' E 008°47'8 8.2
2014-Apr-15 00:34N 43°36' E 008°58'8 7.9
2014-Apr-14 23:34N 43°35' E 009°09'8 7.8
2014-Apr-14 22:34N 43°34' E 009°20'8 7.7
2014-Apr-14 21:34N 43°33' E 009°30'8 7.8
2014-Apr-14 20:34N 43°33' E 009°41'8 8.2
2014-Apr-14 19:34N 43°31' E 009°52'9 8.7
2014-Apr-14 18:34N 43°30' E 010°04'9 8.7
2014-Apr-14 17:34N 43°32' E 010°16'2 0.9
2014-Apr-14 15:31N 43°33' E 010°18'0 0.0
2014-Apr-14 14:33N 43°33' E 010°18'0 0.0
2014-Apr-14 13:34N 43°33' E 010°18'0 0.0
2014-Apr-14 11:32N 43°33' E 010°18'0 0.0
2014-Apr-14 10:31N 43°33' E 010°18'0 0.0
2014-Apr-14 09:31N 43°33' E 010°18'0 0.0
2014-Apr-14 08:33N 43°33' E 010°18'0 0.0
2014-Apr-14 07:33N 43°33' E 010°18'0 0.0
2014-Apr-14 05:32N 43°33' E 010°18'171 4.6
2014-Apr-12 16:21N 41°09' E 008°12'1714.7
2014-Apr-12 15:11N 41°01' E 007°52'1015.0
2014-Apr-12 14:33N 40°56' E 007°41'3215.0
2014-Apr-12 12:26N 40°41' E 007°04'1315.1
2014-Apr-12 11:33N 40°35' E 006°49'1514.9
2014-Apr-12 10:33N 40°27' E 006°32'3315.1
2014-Apr-12 08:23N 40°12' E 005°54'1516.0
2014-Apr-12 07:26N 40°04' E 005°37'1415.6
2014-Apr-12 06:33N 39°58' E 005°21'4615.5
2014-Apr-12 03:33N 39°35' E 004°28'1615.7
2014-Apr-12 02:32N 39°28' E 004°10'1616.0
2014-Apr-12 01:33N 39°21' E 003°52'1414.5
2014-Apr-12 00:33N 39°15' E 003°35'1515.3
2014-Apr-11 23:33N 39°08' E 003°17'1514.7
2014-Apr-11 22:33N 39°04' E 002°59'1413.7
2014-Apr-11 21:33N 39°14' E 002°46'1515.4
2014-Apr-11 20:33N 39°28' E 002°40'5 4.5
2014-Apr-11 19:31N 39°33' E 002°38'0 0.0
2014-Apr-11 18:31N 39°33' E 002°38'0 0.0
2014-Apr-11 17:31N 39°33' E 002°38'0 0.0
2014-Apr-11 16:31N 39°33' E 002°38'0 0.0
2014-Apr-11 15:31N 39°33' E 002°38'0 0.0
2014-Apr-11 14:31N 39°33' E 002°38'0 0.0
2014-Apr-11 13:31N 39°33' E 002°38'0 0.0
2014-Apr-11 12:31N 39°33' E 002°38'0 0.0
2014-Apr-11 11:31N 39°33' E 002°38'0 0.0
2014-Apr-11 10:31N 39°33' E 002°38'0 0.0
2014-Apr-11 09:31N 39°33' E 002°38'0 0.0
2014-Apr-11 08:31N 39°33' E 002°38'0 0.0
2014-Apr-11 07:31N 39°33' E 002°38'0 0.0
2014-Apr-11 06:31N 39°33' E 002°38'0 0.0
2014-Apr-11 05:28N 39°33' E 002°38'110116.1
2014-Apr-11 04:31N 41°21' E 002°11'110114.3
2014-Apr-11 03:33N 39°33' E 002°38'2 1.7
2014-Apr-11 02:33N 39°31' E 002°38'1212.3
2014-Apr-11 01:33N 39°28' E 002°23'1313.2
2014-Apr-11 00:33N 39°37' E 002°11'1514.5
2014-Apr-10 23:33N 39°52' E 002°11'1414.3
2014-Apr-10 22:33N 40°06' E 002°11'1615.4
2014-Apr-10 21:33N 40°22' E 002°11'1514.7
2014-Apr-10 20:33N 40°36' E 002°11'1515.3
2014-Apr-10 19:33N 40°51' E 002°11'1616.0
2014-Apr-10 18:33N 41°07' E 002°11'1313.1
2014-Apr-10 17:33N 41°21' E 002°10'1 0.7
2014-Apr-10 16:30N 41°21' E 002°11'0 0.0
2014-Apr-10 15:18N 41°21' E 002°11'0 0.0
2014-Apr-10 12:24N 41°21' E 002°11'0 0.0
2014-Apr-10 11:30N 41°21' E 002°11'0 0.0
2014-Apr-10 06:17N 41°21' E 002°11'3 3.8
2014-Apr-10 05:33N 41°19' E 002°10'1212.2
2014-Apr-10 04:34N 41°21' E 002°26'1414.0
2014-Apr-10 03:33N 41°28' E 002°43'1414.1
2014-Apr-10 02:33N 41°34' E 002°60'1514.6
2014-Apr-10 01:33N 41°41' E 003°17'1414.2
2014-Apr-10 00:33N 41°52' E 003°30'1514.5
2014-Apr-09 23:32N 42°03' E 003°43'1614.0
2014-Apr-09 22:24N 42°14' E 003°58'1315.0
2014-Apr-09 21:33N 42°24' E 004°09'1414.2
2014-Apr-09 20:33N 42°34' E 004°22'1414.4
2014-Apr-09 19:33N 42°45' E 004°36'1514.0
2014-Apr-09 18:28N 42°56' E 004°50'1516.2
2014-Apr-09 17:33N 43°07' E 005°03'1514.5
2014-Apr-09 16:33N 43°18' E 005°16'4 0.3
2014-Apr-09 05:26N 43°21' E 005°19'5 6.3
2014-Apr-09 04:33N 43°18' E 005°13'1211.3
2014-Apr-09 03:31N 43°06' E 005°15'15 7.3
2014-Apr-09 01:28N 43°01' E 005°35'9 6.3
2014-Apr-09 00:05N 42°58' E 005°46'22 7.5
2014-Apr-08 21:09N 42°54' E 006°15'5 7.5
2014-Apr-08 20:33N 42°54' E 006°22'46 7.6
2014-Apr-08 14:33N 43°26' E 007°07'8 8.0
2014-Apr-08 13:33N 43°31' E 007°15'8 7.8
2014-Apr-08 12:33N 43°36' E 007°24'4 2.5
2014-Apr-08 11:10N 43°38' E 007°27'1 1.1
2014-Apr-08 10:25N 43°38' E 007°26'0 0.2
2014-Apr-08 09:32N 43°38' E 007°26'50 8.0
2014-Apr-08 03:15N 43°37' E 008°36'6 8.0
2014-Apr-08 02:33N 43°37' E 008°44'8 8.3
2014-Apr-08 01:33N 43°36' E 008°55'9 8.6
2014-Apr-08 00:33N 43°35' E 009°07'8 8.4
2014-Apr-07 23:33N 43°34' E 009°18'8 8.5
2014-Apr-07 22:34N 43°34' E 009°30'9 8.5
2014-Apr-07 21:33N 43°33' E 009°42'8 8.4
2014-Apr-07 20:34N 43°31' E 009°53'8 8.3
2014-Apr-07 19:33N 43°30' E 010°04'10 5.0
2014-Apr-07 17:28N 43°33' E 010°18'0 0.0
2014-Apr-07 16:31N 43°33' E 010°18'0 0.0
2014-Apr-07 15:31N 43°33' E 010°18'0 0.0
2014-Apr-07 14:32N 43°33' E 010°18'0 0.0
2014-Apr-07 13:33N 43°33' E 010°18'0 0.0
2014-Apr-07 12:33N 43°33' E 010°18'0 0.0
2014-Apr-07 11:30N 43°33' E 010°18'0 0.0
2014-Apr-07 10:33N 43°33' E 010°18'0 0.0
2014-Apr-07 09:31N 43°33' E 010°18'0 0.0
2014-Apr-07 08:31N 43°33' E 010°18'0 0.0
2014-Apr-07 07:31N 43°33' E 010°18'0 0.0
2014-Apr-07 06:34N 43°33' E 010°18'4 3.6
2014-Apr-07 05:33N 43°30' E 010°14'1515.3
2014-Apr-07 04:33N 43°16' E 010°10'1616.4
2014-Apr-07 03:33N 42°60' E 010°05'1615.6
2014-Apr-07 02:33N 42°44' E 010°02'3114.9
2014-Apr-07 00:30N 42°25' E 010°35'  

Dump ship's entire track history

sailing weather and tide predictions

Aidamar — ICSJ — position and weather